createdAt,value
2022-09-16T00:00:17.062Z,100470.66
2022-09-16T00:00:42.571Z,100468.91
2022-09-16T00:01:12.284Z,100478.72
2022-09-16T00:01:34.081Z,100478.72
2022-09-16T00:01:55.799Z,100463.72
2022-09-16T00:02:17.435Z,100475.03
2022-09-16T00:02:40.226Z,100481.59
2022-09-16T00:03:03.210Z,100478.03
2022-09-16T00:03:24.847Z,100471.69
2022-09-16T00:03:48.551Z,100476.19
2022-09-16T00:04:11.077Z,100479.53
2022-09-16T00:04:32.735Z,100476.06
2022-09-16T00:04:54.735Z,100475.09
2022-09-16T00:05:16.458Z,100482.13
2022-09-16T00:05:42.092Z,100480.28
2022-09-16T00:06:07.348Z,100482.97
2022-09-16T00:06:29.963Z,100480.16
2022-09-16T00:06:51.536Z,100484.69
2022-09-16T00:07:13.115Z,100486.63
2022-09-16T00:07:35.114Z,100486.41
2022-09-16T00:07:57.666Z,100482.84
2022-09-16T00:08:22.641Z,100489.09
2022-09-16T00:08:45.460Z,100489.88
2022-09-16T00:09:08.108Z,100475.47
2022-09-16T00:09:29.704Z,100481.81
2022-09-16T00:09:51.328Z,100481.16
2022-09-16T00:10:13.280Z,100468.69
2022-09-16T00:10:36.035Z,100485.22
2022-09-16T00:10:59.885Z,100484.28
2022-09-16T00:11:21.844Z,100483.41
2022-09-16T00:11:44.377Z,100482.53
2022-09-16T00:12:06.802Z,100480.63
2022-09-16T00:12:28.550Z,100485.06
2022-09-16T00:12:50.651Z,100480.41
2022-09-16T00:13:14.149Z,100477.53
2022-09-16T00:13:36.944Z,100478.19
2022-09-16T00:13:58.498Z,100475.72
2022-09-16T00:14:20.130Z,100481.72
2022-09-16T00:14:41.713Z,100475.41
2022-09-16T00:15:04.866Z,100476.13
2022-09-16T00:15:27.969Z,100473.34
2022-09-16T00:15:51.040Z,100476.03
2022-09-16T00:16:17.647Z,100480.34
2022-09-16T00:16:39.265Z,100481.19
2022-09-16T00:17:01.830Z,100481.44
2022-09-16T00:17:23.924Z,100480.47
2022-09-16T00:17:49.246Z,100486.59
2022-09-16T00:18:12.079Z,100481.19
2022-09-16T00:18:34.735Z,100484.75
2022-09-16T00:18:57.941Z,100487.56
2022-09-16T00:19:19.536Z,100486.59
2022-09-16T00:19:43.186Z,100475.94
2022-09-16T00:20:06.259Z,100478.66
2022-09-16T00:20:29.018Z,100477.88
2022-09-16T00:20:52.051Z,100474.44
2022-09-16T00:21:14.875Z,100472.50
2022-09-16T00:21:36.446Z,100482.50
2022-09-16T00:21:58.227Z,100485.94
2022-09-16T00:22:19.813Z,100474.63
2022-09-16T00:22:42.359Z,100482.38
2022-09-16T00:23:03.891Z,100478.94
2022-09-16T00:23:25.413Z,100474.63
2022-09-16T00:24:25.288Z,100477.22
2022-09-16T00:24:48.671Z,100471.94
2022-09-16T00:25:11.075Z,100478.19
2022-09-16T00:25:33.186Z,100474.94
2022-09-16T00:25:55.632Z,100471.28
2022-09-16T00:26:18.788Z,100485.47
2022-09-16T00:26:40.410Z,100476.78
2022-09-16T00:27:02.036Z,100479.44
2022-09-16T00:27:23.621Z,100472.34
2022-09-16T00:27:48.297Z,100474.84
2022-09-16T00:28:11.024Z,100477.53
2022-09-16T00:28:34.259Z,100475.03
2022-09-16T00:28:56.805Z,100471.47
2022-09-16T00:29:18.393Z,100465.56
2022-09-16T00:29:41.173Z,100472.56
2022-09-16T00:30:03.517Z,100475.25
2022-09-16T00:30:25.157Z,100470.84
2022-09-16T00:30:46.734Z,100470.84
2022-09-16T00:31:09.297Z,100474.47
2022-09-16T00:31:30.971Z,100477.28
2022-09-16T00:31:52.642Z,100471.16
2022-09-16T00:32:14.450Z,100462.34
2022-09-16T00:32:37.018Z,100472.41
2022-09-16T00:32:59.679Z,100471.38
2022-09-16T00:33:21.395Z,100465.88
2022-09-16T00:33:44.415Z,100458.97
2022-09-16T00:34:06.019Z,100472.22
2022-09-16T00:34:27.732Z,100467.81
2022-09-16T00:34:49.309Z,100467.81
2022-09-16T00:35:11.960Z,100465.03
2022-09-16T00:35:33.569Z,100463.63
2022-09-16T00:36:05.998Z,100462.63
2022-09-16T00:36:28.790Z,100471.25
2022-09-16T00:36:50.365Z,100465.88
2022-09-16T00:37:11.934Z,100452.97
2022-09-16T00:37:33.587Z,100469.53
2022-09-16T00:37:55.174Z,100466.72
2022-09-16T00:38:18.105Z,100468.69
2022-09-16T00:38:40.139Z,100470.59
2022-09-16T00:39:01.785Z,100453.91
2022-09-16T00:39:23.518Z,100469.09
2022-09-16T00:39:47.997Z,100470.81
2022-09-16T00:40:11.380Z,100468.88
2022-09-16T00:40:33.285Z,100474.38
2022-09-16T00:40:55.013Z,100468.31
2022-09-16T00:41:19.372Z,100469.00
2022-09-16T00:41:41.935Z,100469.94
2022-09-16T00:42:04.708Z,100467.16
2022-09-16T00:42:26.621Z,100475.09
2022-09-16T00:42:48.323Z,100467.91
2022-09-16T00:43:12.679Z,100461.03
2022-09-16T00:43:51.694Z,100476.19
2022-09-16T00:44:46.832Z,100467.44
2022-09-16T00:45:16.360Z,100477.22
2022-09-16T00:45:39.161Z,100472.81
2022-09-16T00:46:04.562Z,100467.44
2022-09-16T00:46:32.123Z,100477.22
2022-09-16T00:46:55.213Z,100475.41
2022-09-16T00:47:20.458Z,100472.00
2022-09-16T00:47:47.734Z,100469.38
2022-09-16T00:48:15.594Z,100473.91
2022-09-16T00:48:37.181Z,100467.44
2022-09-16T00:49:02.975Z,100468.31
2022-09-16T00:49:30.053Z,100468.22
2022-09-16T00:49:56.034Z,100469.09
2022-09-16T00:50:22.232Z,100466.88
2022-09-16T00:50:48.268Z,100461.41
2022-09-16T00:51:16.659Z,100470.69
2022-09-16T00:51:39.652Z,100467.91
2022-09-16T00:52:05.585Z,100475.97
2022-09-16T00:52:29.703Z,100468.78
2022-09-16T00:52:54.021Z,100472.31
2022-09-16T00:53:19.008Z,100474.16
2022-09-16T00:53:44.987Z,100473.28
2022-09-16T00:54:09.925Z,100472.63
2022-09-16T00:54:34.658Z,100465.53
2022-09-16T00:54:58.584Z,100471.88
2022-09-16T00:55:28.039Z,100472.72
2022-09-16T00:55:51.417Z,100468.63
2022-09-16T00:56:17.749Z,100476.59
2022-09-16T00:56:43.994Z,100466.88
2022-09-16T00:57:34.360Z,100467.75
2022-09-16T00:58:03.381Z,100466.25
2022-09-16T00:58:32.252Z,100463.22
2022-09-16T00:59:02.409Z,100469.13
2022-09-16T00:59:29.516Z,100472.69
2022-09-16T00:59:55.150Z,100466.53
2022-09-16T01:00:17.606Z,100469.03
2022-09-16T01:00:39.928Z,100468.28
2022-09-16T01:01:05.072Z,100469.88
2022-09-16T01:01:26.834Z,100474.41
2022-09-16T01:01:49.258Z,100474.50
2022-09-16T01:02:13.676Z,100476.13
2022-09-16T01:02:35.364Z,100460.44
2022-09-16T01:02:57.962Z,100467.97
2022-09-16T01:03:20.561Z,100474.41
2022-09-16T01:03:46.767Z,100471.63
2022-09-16T01:04:13.405Z,100465.38
2022-09-16T01:04:43.368Z,100469.22
2022-09-16T01:05:08.027Z,100467.19
2022-09-16T01:05:30.004Z,100474.41
2022-09-16T01:05:52.378Z,100469.88
2022-09-16T01:06:16.246Z,100474.28
2022-09-16T01:06:39.508Z,100482.56
2022-09-16T01:07:01.758Z,100480.75
2022-09-16T01:07:30.069Z,100475.25
2022-09-16T01:07:54.942Z,100474.28
2022-09-16T01:08:16.667Z,100477.84
2022-09-16T01:08:39.284Z,100477.84
2022-09-16T01:09:01.665Z,100477.84
2022-09-16T01:09:26.039Z,100474.41
2022-09-16T01:09:47.620Z,100462.34
2022-09-16T01:10:09.702Z,100476.13
2022-09-16T01:10:31.626Z,100472.69
2022-09-16T01:10:54.245Z,100473.75
2022-09-16T01:11:17.007Z,100468.28
2022-09-16T01:11:38.590Z,100466.63
2022-09-16T01:12:00.165Z,100468.38
2022-09-16T01:12:21.757Z,100477.28
2022-09-16T01:12:45.913Z,100470.97
2022-09-16T01:13:09.805Z,100471.91
2022-09-16T01:13:31.528Z,100469.22
2022-09-16T01:14:15.369Z,100464.16
2022-09-16T01:14:57.275Z,100467.31
2022-09-16T01:15:19.217Z,100469.22
2022-09-16T01:15:48.016Z,100479.09
2022-09-16T01:16:15.341Z,100469.13
2022-09-16T01:16:44.981Z,100470.19
2022-09-16T01:17:18.263Z,100474.59
2022-09-16T01:17:57.402Z,100472.78
2022-09-16T01:18:25.415Z,100475.38
2022-09-16T01:18:54.611Z,100476.34
2022-09-16T01:19:32.669Z,100480.84
2022-09-16T01:20:19.395Z,100476.34
2022-09-16T01:21:07.623Z,100484.38
2022-09-16T01:21:43.825Z,100466.53
2022-09-16T01:22:18.076Z,100478.38
2022-09-16T01:22:56.411Z,100474.81
2022-09-16T01:23:48.845Z,100465.34
2022-09-16T01:24:44.451Z,100486.44
2022-09-16T01:25:17.319Z,100484.59
2022-09-16T01:25:58.529Z,100470.63
2022-09-16T01:26:51.328Z,100481.91
2022-09-16T01:27:49.418Z,100481.22
2022-09-16T01:28:32.875Z,100480.19
2022-09-16T01:29:18.540Z,100453.81
2022-09-16T01:30:09.756Z,100481.06
2022-09-16T01:31:00.454Z,100477.13
2022-09-16T01:31:28.254Z,100477.03
2022-09-16T01:31:57.825Z,100471.56
2022-09-16T01:32:27.641Z,100472.63
2022-09-16T01:33:01.364Z,100482.09
2022-09-16T01:33:34.235Z,100474.25
2022-09-16T01:34:05.001Z,100482.31
2022-09-16T01:34:36.091Z,100471.56
2022-09-16T01:35:08.248Z,100482.88
2022-09-16T01:35:41.990Z,100482.75
2022-09-16T01:36:17.035Z,100481.72
2022-09-16T01:36:49.601Z,100480.75
2022-09-16T01:37:21.535Z,100477.19
2022-09-16T01:37:52.638Z,100470.09
2022-09-16T01:38:28.583Z,100475.47
2022-09-16T01:39:03.231Z,100469.44
2022-09-16T01:39:36.646Z,100471.19
2022-09-16T01:40:07.427Z,100467.50
2022-09-16T01:40:35.585Z,100475.47
2022-09-16T01:41:07.163Z,100468.28
2022-09-16T01:41:41.344Z,100471.34
2022-09-16T01:42:16.636Z,100459.00
2022-09-16T01:42:47.431Z,100469.44
2022-09-16T01:43:18.241Z,100468.28
2022-09-16T01:43:51.716Z,100463.00
2022-09-16T01:44:21.932Z,100469.22
2022-09-16T01:44:50.379Z,100457.84
2022-09-16T01:45:19.282Z,100469.13
2022-09-16T01:45:45.422Z,100463.75
2022-09-16T01:46:19.265Z,100472.69
2022-09-16T01:46:49.373Z,100465.59
2022-09-16T01:47:20.298Z,100452.00
2022-09-16T01:47:48.952Z,100463.84
2022-09-16T01:48:18.281Z,100468.50
2022-09-16T01:48:43.787Z,100464.16
2022-09-16T01:49:16.653Z,100472.78
2022-09-16T01:49:45.217Z,100469.44
2022-09-16T01:50:17.477Z,100466.53
2022-09-16T01:50:45.527Z,100468.38
2022-09-16T01:51:15.326Z,100470.97
2022-09-16T01:51:44.206Z,100471.81
2022-09-16T01:52:17.357Z,100469.03
2022-09-16T01:52:50.154Z,100464.94
2022-09-16T01:53:18.406Z,100463.69
2022-09-16T01:53:48.723Z,100470.00
2022-09-16T01:54:13.494Z,100467.50
2022-09-16T01:54:43.615Z,100470.88
2022-09-16T01:55:08.326Z,100465.38
2022-09-16T01:55:35.739Z,100474.41
2022-09-16T01:56:02.951Z,100472.69
2022-09-16T01:56:33.849Z,100466.75
2022-09-16T01:57:02.574Z,100471.81
2022-09-16T01:57:33.009Z,100470.00
2022-09-16T01:58:01.763Z,100460.00
2022-09-16T01:58:29.921Z,100461.09
2022-09-16T01:58:57.388Z,100469.13
2022-09-16T01:59:23.487Z,100463.94
2022-09-16T01:59:50.309Z,100454.19
2022-09-16T02:00:15.130Z,100457.19
2022-09-16T02:00:39.993Z,100458.69
2022-09-16T02:01:06.608Z,100464.06
2022-09-16T02:01:35.655Z,100457.75
2022-09-16T02:02:03.885Z,100456.09
2022-09-16T02:02:31.976Z,100455.53
2022-09-16T02:02:58.727Z,100449.22
2022-09-16T02:03:26.303Z,100451.81
2022-09-16T02:03:53.125Z,100457.19
2022-09-16T02:04:18.600Z,100457.19
2022-09-16T02:04:47.356Z,100454.50
2022-09-16T02:05:14.553Z,100461.25
2022-09-16T02:05:45.676Z,100456.09
2022-09-16T02:06:09.414Z,100461.16
2022-09-16T02:06:33.949Z,100454.28
2022-09-16T02:06:57.020Z,100458.47
2022-09-16T02:07:23.776Z,100455.25
2022-09-16T02:07:53.105Z,100457.63
2022-09-16T02:08:20.114Z,100456.75
2022-09-16T02:08:54.413Z,100463.94
2022-09-16T02:09:20.628Z,100432.59
2022-09-16T02:09:48.344Z,100457.53
2022-09-16T02:10:16.819Z,100462.91
2022-09-16T02:10:43.029Z,100444.50
2022-09-16T02:11:08.725Z,100453.31
2022-09-16T02:11:30.949Z,100460.44
2022-09-16T02:11:57.393Z,100454.94
2022-09-16T02:12:25.325Z,100433.41
2022-09-16T02:12:50.269Z,100455.81
2022-09-16T02:13:17.859Z,100448.13
2022-09-16T02:13:42.630Z,100454.59
2022-09-16T02:14:11.080Z,100437.09
2022-09-16T02:14:38.998Z,100444.72
2022-09-16T02:15:06.029Z,100443.75
2022-09-16T02:15:30.505Z,100445.56
2022-09-16T02:15:57.277Z,100446.13
2022-09-16T02:16:24.893Z,100446.00
2022-09-16T02:16:51.749Z,100446.88
2022-09-16T02:17:17.190Z,100441.72
2022-09-16T02:17:46.884Z,100450.44
2022-09-16T02:18:12.228Z,100445.06
2022-09-16T02:18:37.002Z,100446.69
2022-09-16T02:19:06.648Z,100448.38
2022-09-16T02:19:32.547Z,100449.78
2022-09-16T02:19:57.874Z,100449.47
2022-09-16T02:20:25.048Z,100449.25
2022-09-16T02:20:49.381Z,100456.34
2022-09-16T02:21:16.832Z,100456.34
2022-09-16T02:21:45.447Z,100450.97
2022-09-16T02:22:10.900Z,100451.84
2022-09-16T02:22:37.829Z,100450.03
2022-09-16T02:23:06.252Z,100451.84
2022-09-16T02:23:33.391Z,100450.97
2022-09-16T02:23:59.367Z,100450.03
2022-09-16T02:24:27.575Z,100458.19
2022-09-16T02:24:53.712Z,100451.84
2022-09-16T02:25:18.352Z,100459.03
2022-09-16T02:25:42.638Z,100450.97
2022-09-16T02:26:06.489Z,100453.56
2022-09-16T02:26:32.711Z,100458.94
2022-09-16T02:27:00.640Z,100456.13
2022-09-16T02:27:23.189Z,100450.75
2022-09-16T02:27:47.296Z,100454.22
2022-09-16T02:28:13.661Z,100459.59
2022-09-16T02:28:38.788Z,100455.19
2022-09-16T02:29:03.232Z,100461.41
2022-09-16T02:29:27.800Z,100460.47
2022-09-16T02:29:54.019Z,100457.69
2022-09-16T02:30:18.412Z,100456.69
2022-09-16T02:30:43.073Z,100459.69
2022-09-16T02:31:07.509Z,100454.13
2022-09-16T02:31:35.240Z,100431.84
2022-09-16T02:32:01.661Z,100460.38
2022-09-16T02:32:27.005Z,100459.38
2022-09-16T02:32:53.492Z,100456.69
2022-09-16T02:33:18.550Z,100463.06
2022-09-16T02:33:46.421Z,100448.84
2022-09-16T02:34:14.529Z,100457.22
2022-09-16T02:34:40.960Z,100462.59
2022-09-16T02:35:03.491Z,100455.41
2022-09-16T02:35:27.098Z,100459.03
2022-09-16T02:35:52.500Z,100460.22
2022-09-16T02:36:19.995Z,100456.56
2022-09-16T02:36:45.616Z,100463.69
2022-09-16T02:37:11.733Z,100459.25
2022-09-16T02:37:39.976Z,100460.13
2022-09-16T02:38:06.653Z,100465.50
2022-09-16T02:38:35.965Z,100462.91
2022-09-16T02:39:02.373Z,100461.25
2022-09-16T02:39:29.973Z,100460.31
2022-09-16T02:39:57.675Z,100455.81
2022-09-16T02:40:25.352Z,100465.81
2022-09-16T02:40:52.052Z,100461.25
2022-09-16T02:41:15.376Z,100458.56
2022-09-16T02:41:39.561Z,100459.44
2022-09-16T02:42:03.036Z,100461.94
2022-09-16T02:42:25.265Z,100452.38
2022-09-16T02:42:46.849Z,100455.63
2022-09-16T02:43:09.065Z,100456.56
2022-09-16T02:43:32.417Z,100463.56
2022-09-16T02:43:55.209Z,100453.03
2022-09-16T02:44:16.906Z,100463.56
2022-09-16T02:44:38.977Z,100462.69
2022-09-16T02:45:03.069Z,100450.25
2022-09-16T02:45:31.691Z,100453.88
2022-09-16T02:46:04.027Z,100457.53
2022-09-16T02:46:36.049Z,100462.03
2022-09-16T02:47:05.343Z,100461.09
2022-09-16T02:47:32.847Z,100455.81
2022-09-16T02:48:03.168Z,100460.13
2022-09-16T02:48:33.495Z,100455.88
2022-09-16T02:49:03.282Z,100455.72
2022-09-16T02:49:28.160Z,100461.94
2022-09-16T02:49:55.817Z,100455.81
2022-09-16T02:50:26.173Z,100456.66
2022-09-16T02:50:55.833Z,100453.19
2022-09-16T02:51:27.585Z,100458.47
2022-09-16T02:51:59.105Z,100460.22
2022-09-16T02:52:29.003Z,100461.72
2022-09-16T02:52:59.142Z,100460.78
2022-09-16T02:53:31.683Z,100459.91
2022-09-16T02:53:57.818Z,100460.69
2022-09-16T02:54:25.435Z,100456.13
2022-09-16T02:54:53.082Z,100448.22
2022-09-16T02:55:26.812Z,100458.72
2022-09-16T02:55:55.684Z,100459.69
2022-09-16T02:56:24.176Z,100451.94
2022-09-16T02:56:47.238Z,100454.63
2022-09-16T02:57:10.165Z,100451.19
2022-09-16T02:57:32.364Z,100458.19
2022-09-16T02:57:54.064Z,100454.28
2022-09-16T02:58:15.737Z,100455.16
2022-09-16T02:58:38.313Z,100451.38
2022-09-16T02:59:02.840Z,100453.13
2022-09-16T02:59:25.243Z,100447.00
2022-09-16T02:59:47.003Z,100453.88
2022-09-16T03:00:11.005Z,100457.53
2022-09-16T03:00:36.888Z,100449.69
2022-09-16T03:00:59.065Z,100441.81
2022-09-16T03:01:22.028Z,100455.88
2022-09-16T03:01:49.029Z,100446.13
2022-09-16T03:02:12.792Z,100454.94
2022-09-16T03:02:34.859Z,100453.97
2022-09-16T03:02:57.036Z,100458.41
2022-09-16T03:03:20.096Z,100451.81
2022-09-16T03:03:41.899Z,100456.31
2022-09-16T03:04:04.101Z,100454.50
2022-09-16T03:04:25.691Z,100450.09
2022-09-16T03:04:48.246Z,100450.63
2022-09-16T03:05:09.854Z,100453.31
2022-09-16T03:05:31.566Z,100451.81
2022-09-16T03:06:17.463Z,100447.41
2022-09-16T03:06:39.989Z,100445.75
2022-09-16T03:07:03.948Z,100450.25
2022-09-16T03:07:25.851Z,100445.88
2022-09-16T03:07:47.442Z,100437.63
2022-09-16T03:08:09.984Z,100446.03
2022-09-16T03:08:32.447Z,100449.78
2022-09-16T03:08:59.488Z,100443.34
2022-09-16T03:09:23.884Z,100439.34
2022-09-16T03:09:48.988Z,100451.63
2022-09-16T03:10:11.901Z,100441.81
2022-09-16T03:10:39.662Z,100439.91
2022-09-16T03:11:08.628Z,100446.16
2022-09-16T03:11:44.306Z,100443.56
2022-09-16T03:12:42.773Z,100432.81
2022-09-16T03:13:12.059Z,100433.00
2022-09-16T03:13:43.625Z,100430.22
2022-09-16T03:14:23.845Z,100438.19
2022-09-16T03:15:13.587Z,100433.56
2022-09-16T03:15:57.225Z,100426.78
2022-09-16T03:16:24.341Z,100431.19
2022-09-16T03:16:56.176Z,100428.41
2022-09-16T03:17:33.496Z,100424.19
2022-09-16T03:18:18.344Z,100425.16
2022-09-16T03:18:59.664Z,100428.63
2022-09-16T03:19:30.127Z,100430.31
2022-09-16T03:20:05.112Z,100431.09
2022-09-16T03:20:36.356Z,100430.13
2022-09-16T03:21:04.643Z,100431.09
2022-09-16T03:21:32.393Z,100425.94
2022-09-16T03:22:03.905Z,100419.78
2022-09-16T03:22:37.803Z,100433.88
2022-09-16T03:23:10.806Z,100427.75
2022-09-16T03:23:45.328Z,100425.16
2022-09-16T03:24:15.725Z,100431.19
2022-09-16T03:24:48.435Z,100436.47
2022-09-16T03:25:20.562Z,100429.56
2022-09-16T03:25:50.788Z,100429.56
2022-09-16T03:26:22.407Z,100431.47
2022-09-16T03:26:50.728Z,100428.78
2022-09-16T03:27:16.785Z,100427.06
2022-09-16T03:27:46.987Z,100430.44
2022-09-16T03:28:13.912Z,100430.53
2022-09-16T03:28:47.416Z,100435.97
2022-09-16T03:29:15.185Z,100431.47
2022-09-16T03:29:43.857Z,100431.59
2022-09-16T03:30:12.390Z,100432.44
2022-09-16T03:30:40.768Z,100426.31
2022-09-16T03:31:07.039Z,100432.00
2022-09-16T03:31:33.431Z,100428.44
2022-09-16T03:32:02.504Z,100424.91
2022-09-16T03:32:30.431Z,100428.34
2022-09-16T03:32:56.583Z,100430.19
2022-09-16T03:33:25.224Z,100424.81
2022-09-16T03:33:52.268Z,100425.00
2022-09-16T03:34:19.176Z,100426.06
2022-09-16T03:34:45.919Z,100424.25
2022-09-16T03:35:11.094Z,100422.44
2022-09-16T03:35:38.497Z,100428.66
2022-09-16T03:36:05.370Z,100420.03
2022-09-16T03:36:33.444Z,100427.59
2022-09-16T03:37:01.274Z,100420.78
2022-09-16T03:37:25.155Z,100425.84
2022-09-16T03:37:47.026Z,100425.75
2022-09-16T03:38:11.324Z,100426.50
2022-09-16T03:38:34.519Z,100426.50
2022-09-16T03:38:58.527Z,100426.50
2022-09-16T03:39:22.616Z,100427.28
2022-09-16T03:39:50.518Z,100427.28
2022-09-16T03:40:14.641Z,100416.63
2022-09-16T03:40:37.880Z,100431.88
2022-09-16T03:40:59.981Z,100434.56
2022-09-16T03:41:23.228Z,100421.56
2022-09-16T03:41:45.638Z,100432.09
2022-09-16T03:42:11.171Z,100427.59
2022-09-16T03:42:33.794Z,100423.94
2022-09-16T03:42:58.139Z,100433.72
2022-09-16T03:43:19.697Z,100428.34
2022-09-16T03:43:41.277Z,100433.59
2022-09-16T03:44:04.538Z,100429.97
2022-09-16T03:44:32.084Z,100426.50
2022-09-16T03:44:53.861Z,100422.44
2022-09-16T03:45:17.469Z,100423.16
2022-09-16T03:45:43.620Z,100420.59
2022-09-16T03:46:10.980Z,100434.03
2022-09-16T03:46:32.955Z,100423.16
2022-09-16T03:46:54.822Z,100420.69
2022-09-16T03:47:18.151Z,100421.66
2022-09-16T03:47:41.140Z,100419.63
2022-09-16T03:48:02.881Z,100426.81
2022-09-16T03:48:24.826Z,100427.66
2022-09-16T03:48:46.422Z,100425.97
2022-09-16T03:49:08.967Z,100426.06
2022-09-16T03:49:30.632Z,100421.75
2022-09-16T03:49:52.213Z,100419.19
2022-09-16T03:50:14.213Z,100424.25
2022-09-16T03:50:37.340Z,100427.66
2022-09-16T03:50:58.898Z,100425.09
2022-09-16T03:51:20.435Z,100421.56
2022-09-16T03:51:42.051Z,100421.56
2022-09-16T03:52:05.407Z,100429.41
2022-09-16T03:52:27.948Z,100423.28
2022-09-16T03:52:49.548Z,100418.31
2022-09-16T03:53:11.177Z,100415.94
2022-09-16T03:53:32.742Z,100416.59
2022-09-16T03:53:55.851Z,100416.78
2022-09-16T03:54:17.399Z,100420.78
2022-09-16T03:54:39.206Z,100412.16
2022-09-16T03:55:00.809Z,100424.44
2022-09-16T03:55:23.668Z,100426.94
2022-09-16T03:55:45.389Z,100418.75
2022-09-16T03:56:06.970Z,100417.91
2022-09-16T03:56:28.765Z,100421.25
2022-09-16T03:56:50.622Z,100426.72
2022-09-16T03:57:14.756Z,100419.84
2022-09-16T03:57:36.484Z,100420.78
2022-09-16T03:57:58.057Z,100430.34
2022-09-16T03:58:19.602Z,100398.09
2022-09-16T03:58:42.249Z,100430.34
2022-09-16T03:59:03.927Z,100413.91
2022-09-16T03:59:25.684Z,100421.34
2022-09-16T03:59:47.253Z,100419.63
2022-09-16T04:00:10.497Z,100422.13
2022-09-16T04:00:35.158Z,100421.13
2022-09-16T04:00:57.705Z,100423.94
2022-09-16T04:01:20.380Z,100416.84
2022-09-16T04:01:42.020Z,100420.41
2022-09-16T04:02:03.839Z,100426.72
2022-09-16T04:02:26.084Z,100417.91
2022-09-16T04:02:50.296Z,100422.31
2022-09-16T04:03:11.973Z,100430.34
2022-09-16T04:03:33.626Z,100422.13
2022-09-16T04:03:56.643Z,100422.00
2022-09-16T04:04:19.187Z,100415.97
2022-09-16T04:04:41.019Z,100418.34
2022-09-16T04:05:03.651Z,100423.81
2022-09-16T04:05:25.354Z,100421.13
2022-09-16T04:05:53.115Z,100415.75
2022-09-16T04:06:15.288Z,100416.53
2022-09-16T04:06:36.851Z,100420.94
2022-09-16T04:06:58.637Z,100413.84
2022-09-16T04:07:21.187Z,100420.09
2022-09-16T04:07:42.747Z,100418.34
2022-09-16T04:08:04.316Z,100421.91
2022-09-16T04:08:25.888Z,100421.03
2022-09-16T04:08:50.494Z,100416.75
2022-09-16T04:09:12.756Z,100415.97
2022-09-16T04:09:34.545Z,100417.63
2022-09-16T04:09:56.109Z,100414.06
2022-09-16T04:10:19.249Z,100421.25
2022-09-16T04:10:40.830Z,100417.50
2022-09-16T04:11:05.139Z,100415.69
2022-09-16T04:11:29.628Z,100418.44
2022-09-16T04:11:52.395Z,100411.16
2022-09-16T04:12:14.260Z,100410.31
2022-09-16T04:12:35.852Z,100408.41
2022-09-16T04:12:58.361Z,100411.06
2022-09-16T04:13:19.928Z,100419.00
2022-09-16T04:13:42.451Z,100417.31
2022-09-16T04:14:04.807Z,100418.19
2022-09-16T04:14:26.413Z,100413.63
2022-09-16T04:14:47.958Z,100417.19
2022-09-16T04:15:10.215Z,100418.06
2022-09-16T04:15:35.092Z,100410.88
2022-09-16T04:15:57.299Z,100413.63
2022-09-16T04:16:20.882Z,100410.97
2022-09-16T04:16:45.210Z,100410.31
2022-09-16T04:17:08.371Z,100411.81
2022-09-16T04:17:31.811Z,100420.94
2022-09-16T04:17:56.331Z,100411.56
2022-09-16T04:18:18.666Z,100412.44
2022-09-16T04:18:49.213Z,100414.25
2022-09-16T04:19:15.837Z,100408.13
2022-09-16T04:19:37.395Z,100416.94
2022-09-16T04:19:58.964Z,100408.31
2022-09-16T04:20:21.489Z,100410.13
2022-09-16T04:20:43.389Z,100413.81
2022-09-16T04:21:05.315Z,100421.94
2022-09-16T04:21:27.797Z,100407.56
2022-09-16T04:21:50.343Z,100410.25
2022-09-16T04:22:11.914Z,100411.22
2022-09-16T04:22:33.470Z,100413.13
2022-09-16T04:22:55.287Z,100401.53
2022-09-16T04:23:16.999Z,100406.06
2022-09-16T04:23:39.566Z,100401.25
2022-09-16T04:24:02.459Z,100406.63
2022-09-16T04:24:24.047Z,100411.91
2022-09-16T04:24:46.596Z,100400.13
2022-09-16T04:25:09.928Z,100416.97
2022-09-16T04:25:31.783Z,100404.50
2022-09-16T04:25:57.271Z,100401.09
2022-09-16T04:26:21.517Z,100407.19
2022-09-16T04:26:43.957Z,100410.19
2022-09-16T04:27:05.574Z,100406.44
2022-09-16T04:27:27.178Z,100411.91
2022-09-16T04:27:49.794Z,100405.59
2022-09-16T04:28:11.481Z,100408.91
2022-09-16T04:28:34.025Z,100406.44
2022-09-16T04:28:55.901Z,100409.88
2022-09-16T04:29:17.551Z,100411.59
2022-09-16T04:29:40.096Z,100407.19
2022-09-16T04:30:01.970Z,100403.09
2022-09-16T04:30:23.544Z,100407.09
2022-09-16T04:30:45.153Z,100409.88
2022-09-16T04:31:11.466Z,100408.19
2022-09-16T04:31:33.521Z,100410.00
2022-09-16T04:31:56.780Z,100412.56
2022-09-16T04:32:18.348Z,100416.31
2022-09-16T04:32:40.860Z,100405.69
2022-09-16T04:33:03.826Z,100409.88
2022-09-16T04:33:28.183Z,100412.56
2022-09-16T04:33:50.617Z,100412.56
2022-09-16T04:34:13.616Z,100409.88
2022-09-16T04:34:35.168Z,100387.47
2022-09-16T04:34:56.752Z,100404.50
2022-09-16T04:35:19.518Z,100414.38
2022-09-16T04:35:42.074Z,100410.75
2022-09-16T04:36:04.580Z,100415.25
2022-09-16T04:36:26.421Z,100406.25
2022-09-16T04:36:48.946Z,100407.97
2022-09-16T04:37:10.593Z,100413.34
2022-09-16T04:37:32.163Z,100404.41
2022-09-16T04:37:53.753Z,100400.78
2022-09-16T04:38:15.334Z,100396.28
2022-09-16T04:38:37.897Z,100396.38
2022-09-16T04:38:59.521Z,100403.56
2022-09-16T04:39:21.232Z,100411.59
2022-09-16T04:39:42.960Z,100387.09
2022-09-16T04:40:06.311Z,100403.47
2022-09-16T04:40:28.003Z,100399.91
2022-09-16T04:40:49.700Z,100400.00
2022-09-16T04:41:13.189Z,100398.41
2022-09-16T04:41:35.985Z,100399.44
2022-09-16T04:41:58.093Z,100404.72
2022-09-16T04:42:19.663Z,100404.81
2022-09-16T04:42:41.229Z,100397.53
2022-09-16T04:43:03.775Z,100397.19
2022-09-16T04:43:25.447Z,100404.94
2022-09-16T04:43:50.422Z,100385.09
2022-09-16T04:44:12.995Z,100406.63
2022-09-16T04:44:35.396Z,100403.19
2022-09-16T04:44:58.222Z,100401.09
2022-09-16T04:45:19.943Z,100405.59
2022-09-16T04:45:41.496Z,100400.22
2022-09-16T04:46:05.631Z,100400.22
2022-09-16T04:46:28.872Z,100397.44
2022-09-16T04:46:50.461Z,100408.25
2022-09-16T04:47:12.150Z,100409.88
2022-09-16T04:47:35.161Z,100400.59
2022-09-16T04:47:57.539Z,100409.88
2022-09-16T04:48:21.495Z,100410.88
2022-09-16T04:48:43.114Z,100411.69
2022-09-16T04:49:06.348Z,100406.63
2022-09-16T04:49:27.940Z,100411.59
2022-09-16T04:49:51.118Z,100408.25
2022-09-16T04:50:12.694Z,100415.38
2022-09-16T04:50:35.316Z,100410.28
2022-09-16T04:51:03.708Z,100405.97
2022-09-16T04:51:27.320Z,100405.69
2022-09-16T04:51:50.515Z,100415.38
2022-09-16T04:52:13.264Z,100411.81
2022-09-16T04:52:35.033Z,100407.41
2022-09-16T04:52:57.257Z,100410.09
2022-09-16T04:53:19.296Z,100406.84
2022-09-16T04:53:43.964Z,100411.81
2022-09-16T04:54:06.786Z,100409.13
2022-09-16T04:54:28.311Z,100418.91